sensor_id;sensor_type;location;lat;lon;timestamp;pressure;altitude;pressure_sealevel;temperature;humidity
6144;BME280;3103;49.492;8.474;2022-12-19T00:01:32;101519.13;;;-0.57;73.33
6144;BME280;3103;49.492;8.474;2022-12-19T00:04:02;101521.91;;;-0.59;73.04
6144;BME280;3103;49.492;8.474;2022-12-19T00:06:35;101532.16;;;-0.46;72.90
6144;BME280;3103;49.492;8.474;2022-12-19T00:09:03;101519.47;;;-0.14;70.49
6144;BME280;3103;49.492;8.474;2022-12-19T00:11:31;101521.25;;;-0.05;69.63
6144;BME280;3103;49.492;8.474;2022-12-19T00:13:58;101505.75;;;-0.27;70.22
6144;BME280;3103;49.492;8.474;2022-12-19T00:16:27;101506.63;;;-0.55;71.09
6144;BME280;3103;49.492;8.474;2022-12-19T00:18:59;101499.25;;;-0.62;72.44
6144;BME280;3103;49.492;8.474;2022-12-19T00:21:31;101501.75;;;-0.41;72.00
6144;BME280;3103;49.492;8.474;2022-12-19T00:24:04;101501.16;;;-0.35;71.41
6144;BME280;3103;49.492;8.474;2022-12-19T00:26:47;101485.91;;;-0.41;71.44
6144;BME280;3103;49.492;8.474;2022-12-19T00:29:15;101478.81;;;-0.40;71.51
6144;BME280;3103;49.492;8.474;2022-12-19T00:31:43;101482.53;;;-0.33;72.24
6144;BME280;3103;49.492;8.474;2022-12-19T00:34:13;101485.38;;;-0.07;71.21
6144;BME280;3103;49.492;8.474;2022-12-19T00:36:39;101494.81;;;-0.05;70.10
6144;BME280;3103;49.492;8.474;2022-12-19T00:39:07;101493.06;;;-0.14;71.83
6144;BME280;3103;49.492;8.474;2022-12-19T00:41:39;101479.97;;;-0.15;70.90
6144;BME280;3103;49.492;8.474;2022-12-19T00:44:11;101480.34;;;-0.01;70.88
6144;BME280;3103;49.492;8.474;2022-12-19T00:46:39;101477.59;;;-0.09;71.18
6144;BME280;3103;49.492;8.474;2022-12-19T00:49:08;101479.13;;;-0.06;71.28
6144;BME280;3103;49.492;8.474;2022-12-19T00:51:36;101472.91;;;0.13;71.34
6144;BME280;3103;49.492;8.474;2022-12-19T00:54:08;101469.09;;;0.25;70.07
6144;BME280;3103;49.492;8.474;2022-12-19T00:56:36;101470.34;;;0.31;69.39
6144;BME280;3103;49.492;8.474;2022-12-19T00:59:05;101469.78;;;0.27;69.58
6144;BME280;3103;49.492;8.474;2022-12-19T01:01:35;101473.34;;;0.36;69.58
6144;BME280;3103;49.492;8.474;2022-12-19T01:04:04;101473.66;;;0.05;70.36
6144;BME280;3103;49.492;8.474;2022-12-19T01:06:51;101476.59;;;0.29;69.24
6144;BME280;3103;49.492;8.474;2022-12-19T01:09:18;101470.47;;;0.74;68.28
6144;BME280;3103;49.492;8.474;2022-12-19T01:11:48;101461.81;;;0.09;69.67
6144;BME280;3103;49.492;8.474;2022-12-19T01:14:34;101475.44;;;0.59;68.39
6144;BME280;3103;49.492;8.474;2022-12-19T01:17:02;101460.09;;;0.45;69.15
6144;BME280;3103;49.492;8.474;2022-12-19T01:19:29;101475.31;;;0.61;70.48
6144;BME280;3103;49.492;8.474;2022-12-19T01:21:55;101472.41;;;0.54;69.69
6144;BME280;3103;49.492;8.474;2022-12-19T01:24:23;101473.00;;;0.48;69.98
6144;BME280;3103;49.492;8.474;2022-12-19T01:26:50;101468.50;;;0.58;69.67
6144;BME280;3103;49.492;8.474;2022-12-19T01:29:16;101473.75;;;0.13;70.37
6144;BME280;3103;49.492;8.474;2022-12-19T01:31:43;101479.47;;;0.36;70.32
6144;BME280;3103;49.492;8.474;2022-12-19T01:34:10;101466.28;;;0.54;70.11
6144;BME280;3103;49.492;8.474;2022-12-19T01:36:36;101463.78;;;0.52;69.36
6144;BME280;3103;49.492;8.474;2022-12-19T01:39:06;101463.25;;;0.31;69.82
6144;BME280;3103;49.492;8.474;2022-12-19T01:41:33;101459.09;;;0.46;69.85
6144;BME280;3103;49.492;8.474;2022-12-19T01:44:03;101461.34;;;0.41;70.26
6144;BME280;3103;49.492;8.474;2022-12-19T01:46:43;101462.88;;;0.44;70.15
6144;BME280;3103;49.492;8.474;2022-12-19T01:49:29;101453.63;;;0.57;69.82
6144;BME280;3103;49.492;8.474;2022-12-19T01:52:00;101444.75;;;0.84;68.75
6144;BME280;3103;49.492;8.474;2022-12-19T01:54:31;101442.31;;;0.55;69.71
6144;BME280;3103;49.492;8.474;2022-12-19T01:57:00;101445.97;;;0.54;69.87
6144;BME280;3103;49.492;8.474;2022-12-19T01:59:31;101446.25;;;0.51;70.51
6144;BME280;3103;49.492;8.474;2022-12-19T02:02:07;101447.72;;;0.99;68.69
6144;BME280;3103;49.492;8.474;2022-12-19T02:04:37;101440.16;;;0.69;69.16
6144;BME280;3103;49.492;8.474;2022-12-19T02:07:07;101436.00;;;0.66;69.89
6144;BME280;3103;49.492;8.474;2022-12-19T02:09:47;101440.59;;;0.64;69.95
6144;BME280;3103;49.492;8.474;2022-12-19T02:12:30;101443.00;;;1.11;68.24
6144;BME280;3103;49.492;8.474;2022-12-19T02:14:59;101441.84;;;0.87;68.83
6144;BME280;3103;49.492;8.474;2022-12-19T02:17:50;101442.88;;;0.95;68.43
6144;BME280;3103;49.492;8.474;2022-12-19T02:20:41;101437.13;;;0.81;69.13
6144;BME280;3103;49.492;8.474;2022-12-19T02:29:44;101422.63;;;0.68;69.36
6144;BME280;3103;49.492;8.474;2022-12-19T02:32:20;101412.09;;;0.94;69.17
6144;BME280;3103;49.492;8.474;2022-12-19T02:37:36;101414.88;;;0.21;71.20
6144;BME280;3103;49.492;8.474;2022-12-19T02:40:08;101411.06;;;0.86;69.23
6144;BME280;3103;49.492;8.474;2022-12-19T02:42:44;101420.84;;;0.41;70.30
6144;BME280;3103;49.492;8.474;2022-12-19T02:45:14;101425.03;;;0.43;70.61
6144;BME280;3103;49.492;8.474;2022-12-19T02:47:55;101426.41;;;0.83;69.11
6144;BME280;3103;49.492;8.474;2022-12-19T02:50:24;101419.03;;;1.12;67.02
6144;BME280;3103;49.492;8.474;2022-12-19T02:52:51;101416.75;;;0.74;68.45
6144;BME280;3103;49.492;8.474;2022-12-19T02:55:21;101415.00;;;0.65;69.62
6144;BME280;3103;49.492;8.474;2022-12-19T03:00:28;101429.88;;;0.66;67.88
6144;BME280;3103;49.492;8.474;2022-12-19T03:05:47;101426.47;;;0.91;67.57
6144;BME280;3103;49.492;8.474;2022-12-19T03:08:35;101418.63;;;0.99;67.44
6144;BME280;3103;49.492;8.474;2022-12-19T03:11:09;101422.94;;;1.00;66.99
6144;BME280;3103;49.492;8.474;2022-12-19T03:16:23;101422.53;;;0.95;67.41
6144;BME280;3103;49.492;8.474;2022-12-19T03:18:51;101420.44;;;0.63;68.13
6144;BME280;3103;49.492;8.474;2022-12-19T03:21:27;101419.84;;;0.24;69.71
6144;BME280;3103;49.492;8.474;2022-12-19T03:23:56;101416.72;;;0.92;67.87
6144;BME280;3103;49.492;8.474;2022-12-19T03:26:27;101421.78;;;0.49;68.94
6144;BME280;3103;49.492;8.474;2022-12-19T03:29:02;101420.97;;;0.67;68.52
6144;BME280;3103;49.492;8.474;2022-12-19T03:31:32;101421.13;;;1.01;67.76
6144;BME280;3103;49.492;8.474;2022-12-19T03:34:05;101422.88;;;0.56;68.84
6144;BME280;3103;49.492;8.474;2022-12-19T03:36:40;101414.59;;;0.95;67.31
6144;BME280;3103;49.492;8.474;2022-12-19T03:39:09;101418.91;;;1.14;66.32
6144;BME280;3103;49.492;8.474;2022-12-19T03:41:38;101422.31;;;1.06;66.39
6144;BME280;3103;49.492;8.474;2022-12-19T03:44:25;101410.09;;;0.87;66.95
6144;BME280;3103;49.492;8.474;2022-12-19T03:47:01;101417.88;;;0.89;67.89
6144;BME280;3103;49.492;8.474;2022-12-19T03:49:30;101416.22;;;0.88;67.89
6144;BME280;3103;49.492;8.474;2022-12-19T03:52:01;101420.53;;;0.71;68.27
6144;BME280;3103;49.492;8.474;2022-12-19T03:54:38;101418.47;;;0.83;67.84
6144;BME280;3103;49.492;8.474;2022-12-19T03:57:09;101419.13;;;0.49;69.04
6144;BME280;3103;49.492;8.474;2022-12-19T03:59:48;101415.00;;;0.65;68.70
6144;BME280;3103;49.492;8.474;2022-12-19T04:02:17;101418.03;;;0.87;68.67
6144;BME280;3103;49.492;8.474;2022-12-19T04:04:52;101421.31;;;1.07;68.09
6144;BME280;3103;49.492;8.474;2022-12-19T04:07:20;101412.63;;;0.97;68.44
6144;BME280;3103;49.492;8.474;2022-12-19T04:09:48;101417.94;;;0.79;69.00
6144;BME280;3103;49.492;8.474;2022-12-19T04:12:19;101418.63;;;0.64;69.83
6144;BME280;3103;49.492;8.474;2022-12-19T04:14:48;101419.81;;;0.69;69.94
6144;BME280;3103;49.492;8.474;2022-12-19T04:17:38;101425.28;;;0.85;69.45
6144;BME280;3103;49.492;8.474;2022-12-19T04:20:12;101429.88;;;0.66;70.01
6144;BME280;3103;49.492;8.474;2022-12-19T04:22:43;101433.00;;;1.23;68.05
6144;BME280;3103;49.492;8.474;2022-12-19T04:25:14;101418.84;;;0.88;69.07
6144;BME280;3103;49.492;8.474;2022-12-19T04:27:45;101408.94;;;0.90;70.35
6144;BME280;3103;49.492;8.474;2022-12-19T04:30:16;101413.59;;;0.96;70.00
6144;BME280;3103;49.492;8.474;2022-12-19T04:32:44;101421.00;;;1.28;69.19
6144;BME280;3103;49.492;8.474;2022-12-19T04:35:12;101420.50;;;1.33;67.92
6144;BME280;3103;49.492;8.474;2022-12-19T04:37:39;101398.56;;;0.97;69.95
6144;BME280;3103;49.492;8.474;2022-12-19T04:40:07;101392.56;;;0.86;71.13
6144;BME280;3103;49.492;8.474;2022-12-19T04:42:34;101387.25;;;0.33;72.58
6144;BME280;3103;49.492;8.474;2022-12-19T04:45:01;101389.75;;;0.88;71.33
6144;BME280;3103;49.492;8.474;2022-12-19T04:47:28;101392.06;;;0.91;71.30
6144;BME280;3103;49.492;8.474;2022-12-19T04:49:55;101394.41;;;0.94;70.76
6144;BME280;3103;49.492;8.474;2022-12-19T04:52:22;101389.41;;;1.09;70.54
6144;BME280;3103;49.492;8.474;2022-12-19T04:54:49;101375.53;;;0.89;71.36
6144;BME280;3103;49.492;8.474;2022-12-19T04:57:16;101384.25;;;1.07;70.77
6144;BME280;3103;49.492;8.474;2022-12-19T04:59:43;101385.75;;;1.10;70.83
6144;BME280;3103;49.492;8.474;2022-12-19T05:02:09;101372.38;;;0.85;71.51
6144;BME280;3103;49.492;8.474;2022-12-19T05:04:36;101370.56;;;0.86;72.16
6144;BME280;3103;49.492;8.474;2022-12-19T05:07:04;101379.78;;;1.08;71.62
6144;BME280;3103;49.492;8.474;2022-12-19T05:09:30;101363.28;;;0.70;72.54
6144;BME280;3103;49.492;8.474;2022-12-19T05:11:57;101372.66;;;1.00;72.21
6144;BME280;3103;49.492;8.474;2022-12-19T05:14:24;101363.16;;;0.98;72.28
6144;BME280;3103;49.492;8.474;2022-12-19T05:16:50;101366.38;;;1.27;71.34
6144;BME280;3103;49.492;8.474;2022-12-19T05:19:25;101364.84;;;1.25;70.80
6144;BME280;3103;49.492;8.474;2022-12-19T05:21:52;101367.50;;;1.25;70.97
6144;BME280;3103;49.492;8.474;2022-12-19T05:24:19;101362.38;;;1.23;71.70
6144;BME280;3103;49.492;8.474;2022-12-19T05:26:47;101358.63;;;1.08;71.99
6144;BME280;3103;49.492;8.474;2022-12-19T05:29:15;101357.56;;;1.27;71.16
6144;BME280;3103;49.492;8.474;2022-12-19T05:31:42;101353.34;;;1.34;71.23
6144;BME280;3103;49.492;8.474;2022-12-19T05:34:09;101353.84;;;1.11;72.51
6144;BME280;3103;49.492;8.474;2022-12-19T05:36:36;101358.69;;;1.16;71.80
6144;BME280;3103;49.492;8.474;2022-12-19T05:39:03;101365.59;;;1.35;71.12
6144;BME280;3103;49.492;8.474;2022-12-19T05:41:29;101362.34;;;1.49;71.41
6144;BME280;3103;49.492;8.474;2022-12-19T05:43:56;101360.22;;;1.27;71.89
6144;BME280;3103;49.492;8.474;2022-12-19T05:46:24;101364.84;;;1.51;71.15
6144;BME280;3103;49.492;8.474;2022-12-19T05:48:51;101363.03;;;0.99;72.45
6144;BME280;3103;49.492;8.474;2022-12-19T05:51:19;101356.41;;;1.21;72.11
6144;BME280;3103;49.492;8.474;2022-12-19T05:53:47;101363.84;;;1.26;71.73
6144;BME280;3103;49.492;8.474;2022-12-19T05:56:16;101374.88;;;1.13;72.66
6144;BME280;3103;49.492;8.474;2022-12-19T05:58:44;101375.84;;;1.38;71.37
6144;BME280;3103;49.492;8.474;2022-12-19T06:01:15;101363.75;;;1.09;72.81
6144;BME280;3103;49.492;8.474;2022-12-19T06:03:42;101377.88;;;1.44;71.97
6144;BME280;3103;49.492;8.474;2022-12-19T06:06:13;101375.56;;;1.41;72.29
6144;BME280;3103;49.492;8.474;2022-12-19T06:08:40;101365.22;;;1.56;72.05
6144;BME280;3103;49.492;8.474;2022-12-19T06:11:09;101360.97;;;1.37;72.62
6144;BME280;3103;49.492;8.474;2022-12-19T06:13:37;101361.19;;;1.52;72.35
6144;BME280;3103;49.492;8.474;2022-12-19T06:16:12;101354.22;;;1.42;72.15
6144;BME280;3103;49.492;8.474;2022-12-19T06:18:43;101358.72;;;1.50;72.13
6144;BME280;3103;49.492;8.474;2022-12-19T06:21:19;101367.31;;;1.52;72.47
6144;BME280;3103;49.492;8.474;2022-12-19T06:23:47;101352.09;;;1.54;72.55
6144;BME280;3103;49.492;8.474;2022-12-19T06:26:16;101353.34;;;1.34;73.03
6144;BME280;3103;49.492;8.474;2022-12-19T06:28:47;101372.13;;;1.48;73.44
6144;BME280;3103;49.492;8.474;2022-12-19T06:31:14;101366.81;;;1.48;73.67
6144;BME280;3103;49.492;8.474;2022-12-19T06:33:41;101361.44;;;1.66;73.18
6144;BME280;3103;49.492;8.474;2022-12-19T06:36:23;101366.28;;;1.71;72.85
6144;BME280;3103;49.492;8.474;2022-12-19T06:38:51;101366.72;;;1.58;72.78
6144;BME280;3103;49.492;8.474;2022-12-19T06:41:18;101363.63;;;1.71;73.51
6144;BME280;3103;49.492;8.474;2022-12-19T06:44:08;101364.00;;;1.50;74.00
6144;BME280;3103;49.492;8.474;2022-12-19T06:46:38;101373.84;;;1.66;73.41
6144;BME280;3103;49.492;8.474;2022-12-19T06:49:05;101360.66;;;1.82;73.65
6144;BME280;3103;49.492;8.474;2022-12-19T06:51:32;101360.44;;;1.67;73.48
6144;BME280;3103;49.492;8.474;2022-12-19T06:53:59;101363.25;;;1.66;74.26
6144;BME280;3103;49.492;8.474;2022-12-19T06:56:26;101359.44;;;2.11;72.17
6144;BME280;3103;49.492;8.474;2022-12-19T06:58:53;101358.75;;;2.00;73.09
6144;BME280;3103;49.492;8.474;2022-12-19T07:01:32;101360.09;;;1.62;74.17
6144;BME280;3103;49.492;8.474;2022-12-19T07:04:11;101352.72;;;1.82;74.14
6144;BME280;3103;49.492;8.474;2022-12-19T07:06:41;101352.44;;;1.85;73.88
6144;BME280;3103;49.492;8.474;2022-12-19T07:09:15;101353.56;;;1.83;73.63
6144;BME280;3103;49.492;8.474;2022-12-19T07:11:43;101358.16;;;1.72;74.80
6144;BME280;3103;49.492;8.474;2022-12-19T07:14:10;101361.88;;;1.88;74.09
6144;BME280;3103;49.492;8.474;2022-12-19T07:16:37;101360.53;;;1.84;74.07
6144;BME280;3103;49.492;8.474;2022-12-19T07:19:05;101356.69;;;1.78;74.50
6144;BME280;3103;49.492;8.474;2022-12-19T07:21:35;101356.50;;;1.71;75.29
6144;BME280;3103;49.492;8.474;2022-12-19T07:24:02;101349.31;;;2.06;74.46
6144;BME280;3103;49.492;8.474;2022-12-19T07:26:29;101357.94;;;2.00;74.04
6144;BME280;3103;49.492;8.474;2022-12-19T07:28:58;101361.59;;;1.65;74.96
6144;BME280;3103;49.492;8.474;2022-12-19T07:31:25;101363.91;;;1.60;76.13
6144;BME280;3103;49.492;8.474;2022-12-19T07:33:52;101353.72;;;1.81;75.76
6144;BME280;3103;49.492;8.474;2022-12-19T07:36:19;101356.94;;;2.01;75.39
6144;BME280;3103;49.492;8.474;2022-12-19T07:38:46;101352.03;;;1.72;76.23
6144;BME280;3103;49.492;8.474;2022-12-19T07:41:13;101359.06;;;1.89;75.85
6144;BME280;3103;49.492;8.474;2022-12-19T07:43:40;101353.31;;;2.10;75.30
6144;BME280;3103;49.492;8.474;2022-12-19T07:46:08;101355.13;;;2.09;75.25
6144;BME280;3103;49.492;8.474;2022-12-19T07:48:35;101359.00;;;2.31;75.15
6144;BME280;3103;49.492;8.474;2022-12-19T07:51:02;101362.69;;;2.55;74.06
6144;BME280;3103;49.492;8.474;2022-12-19T07:53:30;101361.66;;;2.31;73.88
6144;BME280;3103;49.492;8.474;2022-12-19T07:55:57;101361.69;;;2.40;74.27
6144;BME280;3103;49.492;8.474;2022-12-19T07:58:24;101368.22;;;2.11;75.40
6144;BME280;3103;49.492;8.474;2022-12-19T08:00:59;101368.09;;;2.13;75.69
6144;BME280;3103;49.492;8.474;2022-12-19T08:03:28;101367.25;;;2.20;74.81
6144;BME280;3103;49.492;8.474;2022-12-19T08:05:59;101359.16;;;2.30;74.98
6144;BME280;3103;49.492;8.474;2022-12-19T08:08:27;101353.41;;;2.67;73.75
6144;BME280;3103;49.492;8.474;2022-12-19T08:11:18;101347.91;;;2.44;73.85
6144;BME280;3103;49.492;8.474;2022-12-19T08:13:48;101354.88;;;2.61;73.18
6144;BME280;3103;49.492;8.474;2022-12-19T08:16:15;101356.72;;;2.45;73.36
6144;BME280;3103;49.492;8.474;2022-12-19T08:18:42;101353.56;;;2.57;73.30
6144;BME280;3103;49.492;8.474;2022-12-19T08:21:09;101350.41;;;2.46;74.19
6144;BME280;3103;49.492;8.474;2022-12-19T08:23:37;101348.19;;;2.25;74.75
6144;BME280;3103;49.492;8.474;2022-12-19T08:26:10;101362.00;;;2.53;74.72
6144;BME280;3103;49.492;8.474;2022-12-19T08:28:37;101367.66;;;2.74;73.67
6144;BME280;3103;49.492;8.474;2022-12-19T08:31:15;101361.19;;;2.52;74.24
6144;BME280;3103;49.492;8.474;2022-12-19T08:33:42;101361.81;;;2.30;74.74
6144;BME280;3103;49.492;8.474;2022-12-19T08:36:11;101359.88;;;2.40;74.82
6144;BME280;3103;49.492;8.474;2022-12-19T08:38:39;101347.56;;;2.39;75.00
6144;BME280;3103;49.492;8.474;2022-12-19T08:41:06;101345.44;;;2.51;74.66
6144;BME280;3103;49.492;8.474;2022-12-19T08:43:34;101343.78;;;2.50;74.54
6144;BME280;3103;49.492;8.474;2022-12-19T08:46:01;101340.00;;;2.68;74.20
6144;BME280;3103;49.492;8.474;2022-12-19T08:48:28;101344.25;;;2.29;74.86
6144;BME280;3103;49.492;8.474;2022-12-19T08:50:58;101333.50;;;2.63;73.96
6144;BME280;3103;49.492;8.474;2022-12-19T08:53:27;101338.31;;;2.59;74.69
6144;BME280;3103;49.492;8.474;2022-12-19T08:55:58;101332.34;;;2.65;74.56
6144;BME280;3103;49.492;8.474;2022-12-19T08:58:27;101337.63;;;2.65;74.46
6144;BME280;3103;49.492;8.474;2022-12-19T09:00:57;101343.63;;;2.67;74.59
6144;BME280;3103;49.492;8.474;2022-12-19T09:03:31;101333.19;;;2.82;73.46
6144;BME280;3103;49.492;8.474;2022-12-19T09:06:18;101329.69;;;2.82;73.41
6144;BME280;3103;49.492;8.474;2022-12-19T09:08:46;101339.47;;;2.73;73.76
6144;BME280;3103;49.492;8.474;2022-12-19T09:11:15;101321.22;;;2.78;74.07
6144;BME280;3103;49.492;8.474;2022-12-19T09:13:42;101307.31;;;2.84;74.87
6144;BME280;3103;49.492;8.474;2022-12-19T09:16:20;101314.22;;;3.10;73.67
6144;BME280;3103;49.492;8.474;2022-12-19T09:18:50;101314.59;;;2.82;74.47
6144;BME280;3103;49.492;8.474;2022-12-19T09:21:19;101312.88;;;3.06;73.13
6144;BME280;3103;49.492;8.474;2022-12-19T09:23:57;101320.16;;;3.28;72.48
6144;BME280;3103;49.492;8.474;2022-12-19T09:26:33;101337.31;;;2.93;73.40
6144;BME280;3103;49.492;8.474;2022-12-19T09:29:00;101333.66;;;2.86;73.47
6144;BME280;3103;49.492;8.474;2022-12-19T09:31:37;101324.22;;;2.83;73.90
6144;BME280;3103;49.492;8.474;2022-12-19T09:34:03;101327.88;;;2.58;74.78
6144;BME280;3103;49.492;8.474;2022-12-19T09:36:30;101323.53;;;2.65;75.36
6144;BME280;3103;49.492;8.474;2022-12-19T09:38:57;101320.56;;;2.60;75.26
6144;BME280;3103;49.492;8.474;2022-12-19T09:44:31;101323.03;;;3.02;74.38
6144;BME280;3103;49.492;8.474;2022-12-19T09:47:13;101317.03;;;3.08;74.25
6144;BME280;3103;49.492;8.474;2022-12-19T09:49:44;101319.19;;;3.05;74.04
6144;BME280;3103;49.492;8.474;2022-12-19T09:57:51;101308.44;;;2.90;74.44
6144;BME280;3103;49.492;8.474;2022-12-19T10:00:21;101314.53;;;3.15;74.42
6144;BME280;3103;49.492;8.474;2022-12-19T10:03:00;101312.09;;;2.97;73.81
6144;BME280;3103;49.492;8.474;2022-12-19T10:05:50;101313.06;;;3.04;74.46
6144;BME280;3103;49.492;8.474;2022-12-19T10:08:39;101320.63;;;3.32;73.90
6144;BME280;3103;49.492;8.474;2022-12-19T10:15:00;101314.19;;;3.26;74.27
6144;BME280;3103;49.492;8.474;2022-12-19T10:20:18;101293.84;;;3.49;73.33
6144;BME280;3103;49.492;8.474;2022-12-19T10:26:00;101278.22;;;3.54;73.90
6144;BME280;3103;49.492;8.474;2022-12-19T10:28:52;101271.47;;;3.75;72.26
6144;BME280;3103;49.492;8.474;2022-12-19T10:31:29;101276.78;;;3.44;73.08
6144;BME280;3103;49.492;8.474;2022-12-19T10:34:01;101280.06;;;3.54;73.08
6144;BME280;3103;49.492;8.474;2022-12-19T10:36:44;101288.28;;;3.20;74.58
6144;BME280;3103;49.492;8.474;2022-12-19T10:42:48;101269.97;;;3.41;74.36
6144;BME280;3103;49.492;8.474;2022-12-19T10:45:21;101273.50;;;3.65;74.15
6144;BME280;3103;49.492;8.474;2022-12-19T10:47:55;101265.59;;;3.56;74.13
6144;BME280;3103;49.492;8.474;2022-12-19T10:50:25;101262.59;;;3.51;74.07
6144;BME280;3103;49.492;8.474;2022-12-19T10:53:06;101243.19;;;3.82;74.37
6144;BME280;3103;49.492;8.474;2022-12-19T10:55:50;101232.81;;;3.95;74.97
6144;BME280;3103;49.492;8.474;2022-12-19T10:58:32;101250.03;;;4.22;75.53
6144;BME280;3103;49.492;8.474;2022-12-19T11:01:08;101245.59;;;4.23;74.43
6144;BME280;3103;49.492;8.474;2022-12-19T11:03:37;101249.66;;;4.10;73.79
6144;BME280;3103;49.492;8.474;2022-12-19T11:06:05;101246.56;;;4.22;73.21
6144;BME280;3103;49.492;8.474;2022-12-19T11:08:35;101251.66;;;4.08;74.04
6144;BME280;3103;49.492;8.474;2022-12-19T11:13:49;101251.94;;;4.74;72.76
6144;BME280;3103;49.492;8.474;2022-12-19T11:16:37;101240.34;;;4.52;72.29
6144;BME280;3103;49.492;8.474;2022-12-19T11:19:50;101241.97;;;4.38;73.43
6144;BME280;3103;49.492;8.474;2022-12-19T11:22:38;101239.44;;;4.60;72.82
6144;BME280;3103;49.492;8.474;2022-12-19T11:25:40;101244.88;;;4.66;72.59
6144;BME280;3103;49.492;8.474;2022-12-19T11:28:36;101231.19;;;4.32;72.95
6144;BME280;3103;49.492;8.474;2022-12-19T11:31:27;101224.16;;;4.39;74.51
6144;BME280;3103;49.492;8.474;2022-12-19T11:34:20;101208.34;;;4.23;74.19
6144;BME280;3103;49.492;8.474;2022-12-19T11:39:40;101210.31;;;4.21;73.88
6144;BME280;3103;49.492;8.474;2022-12-19T11:42:23;101213.13;;;4.27;73.48
6144;BME280;3103;49.492;8.474;2022-12-19T11:47:55;101214.56;;;4.53;72.92
6144;BME280;3103;49.492;8.474;2022-12-19T11:50:27;101207.56;;;4.37;73.34
6144;BME280;3103;49.492;8.474;2022-12-19T11:55:41;101199.88;;;4.71;72.35
6144;BME280;3103;49.492;8.474;2022-12-19T11:58:10;101196.59;;;4.69;72.67
6144;BME280;3103;49.492;8.474;2022-12-19T12:00:46;101201.91;;;4.69;72.80
6144;BME280;3103;49.492;8.474;2022-12-19T12:03:37;101195.63;;;4.47;73.09
6144;BME280;3103;49.492;8.474;2022-12-19T12:06:32;101197.81;;;4.44;73.67
6144;BME280;3103;49.492;8.474;2022-12-19T12:12:23;101189.22;;;4.57;73.14
6144;BME280;3103;49.492;8.474;2022-12-19T12:21:41;101167.47;;;5.12;70.34
6144;BME280;3103;49.492;8.474;2022-12-19T12:31:32;101173.44;;;4.70;73.21
6144;BME280;3103;49.492;8.474;2022-12-19T12:46:44;101171.69;;;4.92;72.60
6144;BME280;3103;49.492;8.474;2022-12-19T12:51:55;101176.31;;;5.34;70.00
6144;BME280;3103;49.492;8.474;2022-12-19T12:54:29;101173.53;;;5.06;71.33
6144;BME280;3103;49.492;8.474;2022-12-19T12:56:59;101176.56;;;5.03;71.27
6144;BME280;3103;49.492;8.474;2022-12-19T12:59:29;101165.59;;;5.27;70.89
6144;BME280;3103;49.492;8.474;2022-12-19T13:02:20;101170.69;;;5.22;70.91
6144;BME280;3103;49.492;8.474;2022-12-19T13:04:59;101167.81;;;5.24;71.18
6144;BME280;3103;49.492;8.474;2022-12-19T13:07:40;101162.78;;;5.14;71.17
6144;BME280;3103;49.492;8.474;2022-12-19T13:10:21;101150.38;;;5.21;71.51
6144;BME280;3103;49.492;8.474;2022-12-19T13:13:12;101163.88;;;4.90;72.81
6144;BME280;3103;49.492;8.474;2022-12-19T13:15:45;101163.56;;;5.29;70.98
6144;BME280;3103;49.492;8.474;2022-12-19T13:18:35;101155.53;;;5.08;71.54
6144;BME280;3103;49.492;8.474;2022-12-19T13:21:05;101156.38;;;5.09;71.43
6144;BME280;3103;49.492;8.474;2022-12-19T13:26:03;101157.53;;;5.06;71.88
6144;BME280;3103;49.492;8.474;2022-12-19T13:36:44;101150.63;;;5.26;71.38
6144;BME280;3103;49.492;8.474;2022-12-19T13:39:36;101147.59;;;5.29;71.37
6144;BME280;3103;49.492;8.474;2022-12-19T13:42:27;101153.03;;;5.21;72.21
6144;BME280;3103;49.492;8.474;2022-12-19T13:45:14;101155.28;;;4.73;74.06
6144;BME280;3103;49.492;8.474;2022-12-19T13:47:43;101154.63;;;4.86;73.82
6144;BME280;3103;49.492;8.474;2022-12-19T13:50:32;101147.63;;;5.15;72.10
6144;BME280;3103;49.492;8.474;2022-12-19T13:53:01;101154.63;;;4.71;74.22
6144;BME280;3103;49.492;8.474;2022-12-19T13:55:28;101161.13;;;5.13;73.00
6144;BME280;3103;49.492;8.474;2022-12-19T13:57:55;101153.13;;;5.13;72.24
6144;BME280;3103;49.492;8.474;2022-12-19T14:00:33;101150.38;;;4.92;73.24
6144;BME280;3103;49.492;8.474;2022-12-19T14:03:01;101156.13;;;5.40;71.72
6144;BME280;3103;49.492;8.474;2022-12-19T14:05:35;101156.72;;;5.05;72.60
6144;BME280;3103;49.492;8.474;2022-12-19T14:08:23;101155.72;;;4.92;73.36
6144;BME280;3103;49.492;8.474;2022-12-19T14:10:51;101153.25;;;4.90;74.31
6144;BME280;3103;49.492;8.474;2022-12-19T14:13:49;101160.22;;;4.76;74.96
6144;BME280;3103;49.492;8.474;2022-12-19T14:16:45;101150.72;;;5.18;73.60
6144;BME280;3103;49.492;8.474;2022-12-19T14:19:21;101148.09;;;5.03;73.50
6144;BME280;3103;49.492;8.474;2022-12-19T14:21:48;101144.22;;;5.06;73.75
6144;BME280;3103;49.492;8.474;2022-12-19T14:24:35;101147.75;;;5.43;72.04
6144;BME280;3103;49.492;8.474;2022-12-19T14:27:06;101138.63;;;5.52;71.62
6144;BME280;3103;49.492;8.474;2022-12-19T14:29:56;101137.72;;;5.45;71.30
6144;BME280;3103;49.492;8.474;2022-12-19T14:32:46;101129.47;;;5.40;72.17
6144;BME280;3103;49.492;8.474;2022-12-19T14:35:37;101130.19;;;5.33;72.44
6144;BME280;3103;49.492;8.474;2022-12-19T14:38:30;101124.91;;;5.19;72.68
6144;BME280;3103;49.492;8.474;2022-12-19T14:44:13;101129.81;;;5.00;73.53
6144;BME280;3103;49.492;8.474;2022-12-19T14:47:26;101122.00;;;5.14;73.82
6144;BME280;3103;49.492;8.474;2022-12-19T14:50:33;101123.03;;;5.34;72.21
6144;BME280;3103;49.492;8.474;2022-12-19T14:53:22;101127.09;;;5.30;72.14
6144;BME280;3103;49.492;8.474;2022-12-19T14:56:17;101126.03;;;5.24;72.92
6144;BME280;3103;49.492;8.474;2022-12-19T15:04:48;101136.16;;;4.99;72.81
6144;BME280;3103;49.492;8.474;2022-12-19T15:07:29;101130.78;;;4.93;73.73
6144;BME280;3103;49.492;8.474;2022-12-19T15:10:06;101142.41;;;4.77;74.18
6144;BME280;3103;49.492;8.474;2022-12-19T15:12:57;101148.66;;;4.40;75.92
6144;BME280;3103;49.492;8.474;2022-12-19T15:16:04;101130.94;;;4.62;75.59
6144;BME280;3103;49.492;8.474;2022-12-19T15:21:03;101137.00;;;5.00;73.93
6144;BME280;3103;49.492;8.474;2022-12-19T15:23:30;101141.97;;;4.73;74.74
6144;BME280;3103;49.492;8.474;2022-12-19T15:26:02;101130.56;;;4.50;75.37
6144;BME280;3103;49.492;8.474;2022-12-19T15:28:41;101123.75;;;4.92;74.09
6144;BME280;3103;49.492;8.474;2022-12-19T15:31:32;101121.59;;;4.51;74.96
6144;BME280;3103;49.492;8.474;2022-12-19T15:34:20;101111.84;;;4.88;74.40
6144;BME280;3103;49.492;8.474;2022-12-19T15:37:14;101112.41;;;4.54;75.96
6144;BME280;3103;49.492;8.474;2022-12-19T15:39:42;101110.03;;;4.59;75.69
6144;BME280;3103;49.492;8.474;2022-12-19T15:42:17;101110.84;;;4.59;75.95